createdAt,value
2022-11-17T00:03:53.491Z,6.51
2022-11-17T00:08:57.160Z,6.50
2022-11-17T00:14:19.836Z,6.47
2022-11-17T00:19:44.839Z,6.46
2022-11-17T00:24:51.742Z,6.41
2022-11-17T00:29:53.478Z,6.39
2022-11-17T00:34:57.826Z,6.37
2022-11-17T00:40:01.101Z,6.34
2022-11-17T00:45:08.722Z,6.33
2022-11-17T00:50:10.411Z,6.34
2022-11-17T00:55:17.046Z,6.32
2022-11-17T01:00:21.293Z,6.33
2022-11-17T01:05:22.993Z,6.32
2022-11-17T01:10:25.581Z,6.31
2022-11-17T01:15:31.116Z,6.31
2022-11-17T01:20:36.358Z,6.30
2022-11-17T01:25:40.987Z,6.30
2022-11-17T01:30:44.780Z,6.30
2022-11-17T01:35:48.458Z,6.30
2022-11-17T01:40:50.599Z,6.29
2022-11-17T01:45:52.305Z,6.28
2022-11-17T01:50:54.237Z,6.26
2022-11-17T01:55:58.788Z,6.25
2022-11-17T02:01:05.703Z,6.25
2022-11-17T02:06:38.137Z,6.25
2022-11-17T02:11:41.952Z,6.21
2022-11-17T02:16:45.676Z,6.21
2022-11-17T02:22:02.647Z,6.19
2022-11-17T02:27:32.423Z,6.18
2022-11-17T02:33:03.517Z,6.16
2022-11-17T02:38:09.318Z,6.14
2022-11-17T02:43:32.942Z,6.12
2022-11-17T02:48:41.700Z,6.10
2022-11-17T02:53:49.615Z,6.09
2022-11-17T02:58:55.997Z,6.09
2022-11-17T03:04:15.933Z,6.07
2022-11-17T03:09:46.080Z,6.04
2022-11-17T03:15:12.769Z,6.04
2022-11-17T03:20:18.537Z,6.02
2022-11-17T03:25:24.262Z,6.02
2022-11-17T03:30:29.947Z,6.00
2022-11-17T03:35:37.123Z,5.99
2022-11-17T03:40:47.684Z,5.99
2022-11-17T03:45:54.056Z,5.96
2022-11-17T03:50:59.210Z,5.94
2022-11-17T03:56:09.364Z,5.92
2022-11-17T04:01:11.261Z,5.91
2022-11-17T04:06:15.288Z,5.91
2022-11-17T04:11:37.411Z,5.88
2022-11-17T04:16:42.331Z,5.86
2022-11-17T04:21:46.103Z,5.83
2022-11-17T04:27:11.993Z,5.81
2022-11-17T04:32:14.122Z,5.78
2022-11-17T04:37:20.721Z,5.74
2022-11-17T04:42:22.492Z,5.71
2022-11-17T04:47:26.718Z,5.68
2022-11-17T04:52:33.836Z,5.65
2022-11-17T04:57:35.484Z,5.61
2022-11-17T05:02:37.269Z,5.57
2022-11-17T05:07:39.029Z,5.55
2022-11-17T05:12:59.137Z,5.54
2022-11-17T05:18:00.866Z,5.53
2022-11-17T05:23:21.971Z,5.52
2022-11-17T05:28:23.713Z,5.51
2022-11-17T05:33:34.915Z,5.51
2022-11-17T05:38:39.336Z,5.48
2022-11-17T05:43:41.145Z,5.45
2022-11-17T05:48:42.860Z,5.48
2022-11-17T05:53:44.564Z,5.52
2022-11-17T05:58:51.250Z,5.49
2022-11-17T06:03:56.293Z,5.77
2022-11-17T06:08:59.280Z,5.71
2022-11-17T06:14:00.985Z,5.48
2022-11-17T06:19:08.076Z,5.32
2022-11-17T06:24:14.089Z,5.22
2022-11-17T06:29:21.124Z,5.10
2022-11-17T06:34:22.919Z,5.02
2022-11-17T06:39:29.066Z,4.91
2022-11-17T06:44:37.581Z,4.87
2022-11-17T06:49:39.917Z,4.82
2022-11-17T06:54:41.630Z,4.78
2022-11-17T06:59:52.457Z,4.73
2022-11-17T07:05:01.379Z,4.71
2022-11-17T07:10:08.441Z,4.64
2022-11-17T07:15:10.454Z,4.61
2022-11-17T07:20:12.859Z,4.56
2022-11-17T07:25:22.298Z,4.57
2022-11-17T07:30:29.047Z,4.54
2022-11-17T07:35:35.237Z,4.52
2022-11-17T07:40:40.277Z,4.49
2022-11-17T07:45:41.923Z,4.48
2022-11-17T07:50:47.001Z,4.46
2022-11-17T07:55:50.922Z,4.40
2022-11-17T08:00:53.784Z,4.36
2022-11-17T08:05:55.541Z,4.31
2022-11-17T08:10:57.531Z,4.32
2022-11-17T08:16:02.833Z,4.30
2022-11-17T08:21:06.952Z,4.31
2022-11-17T08:26:11.901Z,4.30
2022-11-17T08:31:16.117Z,4.30
2022-11-17T08:36:17.887Z,4.31
2022-11-17T08:41:22.073Z,4.30
2022-11-17T08:46:26.684Z,4.27
2022-11-17T08:51:30.962Z,4.25
2022-11-17T08:56:35.060Z,4.23
2022-11-17T09:01:40.310Z,4.26
2022-11-17T09:06:42.042Z,4.28
2022-11-17T09:11:46.736Z,4.29
2022-11-17T09:16:48.434Z,4.28
2022-11-17T09:21:50.326Z,4.24
2022-11-17T09:26:57.896Z,4.19
2022-11-17T09:31:59.671Z,4.19
2022-11-17T09:37:04.125Z,4.18
2022-11-17T09:42:06.064Z,4.17
2022-11-17T09:47:41.526Z,4.19
2022-11-17T09:52:59.389Z,4.20
2022-11-17T09:58:48.191Z,4.25
2022-11-17T10:03:53.620Z,4.30
2022-11-17T10:09:25.618Z,4.33
2022-11-17T10:14:28.177Z,4.34
2022-11-17T10:19:34.581Z,4.35
2022-11-17T10:24:39.324Z,4.33
2022-11-17T10:30:18.808Z,4.34
2022-11-17T10:35:30.648Z,4.34
2022-11-17T10:40:40.429Z,4.33
2022-11-17T10:46:01.186Z,4.36
2022-11-17T10:51:19.322Z,4.39
2022-11-17T10:56:24.937Z,4.45
2022-11-17T11:01:36.196Z,4.49
2022-11-17T11:06:38.928Z,4.43
2022-11-17T11:11:54.326Z,4.40
2022-11-17T11:16:56.222Z,4.40
2022-11-17T11:22:20.988Z,4.41
2022-11-17T11:27:38.639Z,4.47
2022-11-17T11:32:52.154Z,4.49
2022-11-17T11:38:00.004Z,4.51
2022-11-17T11:43:33.318Z,4.54
2022-11-17T11:48:40.765Z,4.56
2022-11-17T11:54:12.024Z,4.57
2022-11-17T11:59:30.018Z,4.53
2022-11-17T12:04:47.837Z,4.54
2022-11-17T12:10:10.005Z,4.53
2022-11-17T12:15:18.100Z,4.57
2022-11-17T12:20:38.377Z,4.59
2022-11-17T12:25:50.642Z,4.62
2022-11-17T12:31:10.117Z,4.68
2022-11-17T12:36:36.908Z,4.71
2022-11-17T12:41:47.535Z,4.73
2022-11-17T12:46:50.518Z,4.74
2022-11-17T12:52:00.893Z,4.74
2022-11-17T12:57:17.402Z,4.73
2022-11-17T13:02:31.182Z,4.81
2022-11-17T13:07:35.380Z,4.89
2022-11-17T13:12:37.384Z,4.89
2022-11-17T13:17:45.344Z,4.91
2022-11-17T13:23:20.768Z,4.92
2022-11-17T13:28:30.516Z,4.91
2022-11-17T13:33:39.980Z,4.88
2022-11-17T13:38:52.554Z,4.86
2022-11-17T13:43:55.087Z,4.88
2022-11-17T13:48:59.003Z,4.87
2022-11-17T13:54:28.472Z,4.85
2022-11-17T13:59:36.602Z,4.85
2022-11-17T14:05:18.400Z,4.85
2022-11-17T14:10:22.896Z,4.83
2022-11-17T14:15:29.323Z,4.80
2022-11-17T14:20:38.233Z,4.80
2022-11-17T14:25:46.244Z,4.79
2022-11-17T14:30:54.297Z,4.79
2022-11-17T14:35:58.676Z,4.75
2022-11-17T14:41:00.408Z,4.75
2022-11-17T14:46:05.412Z,4.76
2022-11-17T14:51:08.502Z,4.77
2022-11-17T14:56:10.946Z,4.75
2022-11-17T15:01:18.745Z,4.75
2022-11-17T15:06:21.085Z,4.74
2022-11-17T15:11:26.364Z,4.75
2022-11-17T15:16:30.289Z,4.73
2022-11-17T15:21:32.017Z,4.71
2022-11-17T15:26:39.604Z,4.70
2022-11-17T15:31:41.846Z,4.70
2022-11-17T15:36:48.554Z,4.69
2022-11-17T15:41:50.815Z,4.67
2022-11-17T15:46:52.863Z,4.69
2022-11-17T15:51:54.720Z,4.67
2022-11-17T15:57:01.448Z,4.67
2022-11-17T16:02:09.082Z,4.67
2022-11-17T16:07:11.917Z,4.65
2022-11-17T16:12:13.797Z,4.64
2022-11-17T16:17:18.341Z,4.61
2022-11-17T16:22:20.116Z,4.61
2022-11-17T16:27:24.438Z,4.62
2022-11-17T16:32:30.743Z,4.62
2022-11-17T16:37:32.812Z,4.63
2022-11-17T16:42:35.697Z,4.63
2022-11-17T16:47:39.940Z,4.64
2022-11-17T16:52:46.754Z,4.67
2022-11-17T16:57:51.760Z,4.69
2022-11-17T17:02:58.437Z,4.69
2022-11-17T17:08:02.584Z,4.70
2022-11-17T17:13:07.356Z,4.71
2022-11-17T17:18:12.341Z,4.71
2022-11-17T17:23:16.933Z,4.72
2022-11-17T17:28:22.461Z,4.73
2022-11-17T17:33:27.056Z,4.74
2022-11-17T17:38:31.604Z,4.75
2022-11-17T17:43:36.950Z,4.77
2022-11-17T17:48:39.835Z,4.75
2022-11-17T17:53:45.171Z,4.75
2022-11-17T17:58:51.616Z,4.78
2022-11-17T18:03:59.286Z,4.78
2022-11-17T18:09:01.254Z,4.80
2022-11-17T18:14:04.330Z,4.78
2022-11-17T18:19:14.490Z,4.80
2022-11-17T18:24:19.871Z,4.83
2022-11-17T18:29:21.829Z,4.83
2022-11-17T18:34:25.508Z,4.82
2022-11-17T18:39:35.234Z,4.81
2022-11-17T18:44:37.024Z,4.82
2022-11-17T18:49:43.601Z,4.81
2022-11-17T18:54:45.266Z,4.81
2022-11-17T18:59:49.370Z,4.81
2022-11-17T19:04:53.664Z,4.81
2022-11-17T19:09:55.830Z,4.82
2022-11-17T19:15:00.208Z,4.82
2022-11-17T19:20:04.332Z,4.83
2022-11-17T19:25:08.749Z,4.84
2022-11-17T19:30:13.603Z,4.84
2022-11-17T19:35:21.299Z,4.85
2022-11-17T19:40:25.303Z,4.85
2022-11-17T19:45:27.586Z,4.83
2022-11-17T19:50:31.761Z,4.82
2022-11-17T19:55:39.232Z,4.82
2022-11-17T20:00:45.283Z,4.82
2022-11-17T20:05:49.295Z,4.82
2022-11-17T20:11:04.444Z,4.80
2022-11-17T20:16:12.023Z,4.80
2022-11-17T20:21:17.987Z,4.80
2022-11-17T20:26:22.057Z,4.79
2022-11-17T20:31:31.376Z,4.79
2022-11-17T20:36:34.435Z,4.78
2022-11-17T20:41:36.091Z,4.78
2022-11-17T20:46:37.787Z,4.76
2022-11-17T20:51:42.979Z,4.72
2022-11-17T20:56:47.472Z,4.66
2022-11-17T21:01:50.529Z,4.63
2022-11-17T21:06:55.594Z,4.53
2022-11-17T21:12:00.512Z,4.48
2022-11-17T21:17:24.897Z,4.45
2022-11-17T21:22:26.600Z,4.42
2022-11-17T21:27:32.722Z,4.40
2022-11-17T21:32:34.478Z,4.37
2022-11-17T21:37:38.325Z,4.35
2022-11-17T21:42:44.612Z,4.33
2022-11-17T21:47:56.520Z,4.35
2022-11-17T21:53:05.347Z,4.30
2022-11-17T21:58:12.491Z,4.28
2022-11-17T22:03:17.169Z,4.24
2022-11-17T22:08:23.221Z,4.20
2022-11-17T22:13:29.408Z,4.16
2022-11-17T22:18:34.882Z,4.13
2022-11-17T22:23:39.389Z,4.11
2022-11-17T22:28:43.453Z,4.07
2022-11-17T22:33:50.855Z,4.04
2022-11-17T22:38:53.655Z,4.05
2022-11-17T22:43:56.439Z,4.04
2022-11-17T22:48:59.006Z,4.04
2022-11-17T22:54:03.303Z,4.01
2022-11-17T22:59:05.807Z,4.02
2022-11-17T23:04:07.488Z,4.00
2022-11-17T23:09:12.906Z,4.01
2022-11-17T23:14:14.859Z,4.00
2022-11-17T23:19:18.974Z,3.99
2022-11-17T23:24:25.439Z,3.99
2022-11-17T23:29:30.719Z,3.96
2022-11-17T23:34:38.250Z,3.96
2022-11-17T23:39:45.280Z,3.96
2022-11-17T23:44:52.944Z,3.95
2022-11-17T23:49:56.864Z,3.90
2022-11-17T23:55:00.951Z,3.87
